sensor_id;sensor_type;location;lat;lon;timestamp;pressure;altitude;pressure_sealevel;temperature
73894;BMP280;62699;50.534;12.784;2023-11-21T00:03:08;95609.56;;;6.31
73894;BMP280;62699;50.534;12.784;2023-11-21T00:08:09;95619.53;;;6.31
73894;BMP280;62699;50.534;12.784;2023-11-21T00:13:10;95610.03;;;6.24
73894;BMP280;62699;50.534;12.784;2023-11-21T00:18:12;95620.22;;;6.20
73894;BMP280;62699;50.534;12.784;2023-11-21T00:23:14;95622.63;;;6.18
73894;BMP280;62699;50.534;12.784;2023-11-21T00:28:14;95618.25;;;6.15
73894;BMP280;62699;50.534;12.784;2023-11-21T00:33:15;95621.13;;;6.11
73894;BMP280;62699;50.534;12.784;2023-11-21T00:38:15;95623.06;;;6.11
73894;BMP280;62699;50.534;12.784;2023-11-21T00:43:16;95625.75;;;6.11
73894;BMP280;62699;50.534;12.784;2023-11-21T00:48:16;95636.69;;;6.13
73894;BMP280;62699;50.534;12.784;2023-11-21T00:53:16;95633.50;;;6.09
73894;BMP280;62699;50.534;12.784;2023-11-21T00:58:17;95639.09;;;6.11
73894;BMP280;62699;50.534;12.784;2023-11-21T01:03:17;95648.59;;;6.12
73894;BMP280;62699;50.534;12.784;2023-11-21T01:08:18;95656.38;;;6.10
73894;BMP280;62699;50.534;12.784;2023-11-21T01:13:18;95645.69;;;6.10
73894;BMP280;62699;50.534;12.784;2023-11-21T01:18:18;95641.25;;;6.07
73894;BMP280;62699;50.534;12.784;2023-11-21T01:23:19;95649.28;;;6.07
73894;BMP280;62699;50.534;12.784;2023-11-21T01:28:19;95646.34;;;6.05
73894;BMP280;62699;50.534;12.784;2023-11-21T01:33:20;95635.88;;;6.01
73894;BMP280;62699;50.534;12.784;2023-11-21T01:38:21;95639.75;;;6.00
73894;BMP280;62699;50.534;12.784;2023-11-21T01:43:22;95633.72;;;6.00
73894;BMP280;62699;50.534;12.784;2023-11-21T01:48:25;95636.38;;;6.00
73894;BMP280;62699;50.534;12.784;2023-11-21T01:53:26;95640.25;;;5.99
73894;BMP280;62699;50.534;12.784;2023-11-21T01:58:26;95636.13;;;5.98
73894;BMP280;62699;50.534;12.784;2023-11-21T02:03:26;95645.59;;;5.99
73894;BMP280;62699;50.534;12.784;2023-11-21T02:08:27;95639.00;;;5.94
73894;BMP280;62699;50.534;12.784;2023-11-21T02:13:27;95633.84;;;5.91
73894;BMP280;62699;50.534;12.784;2023-11-21T02:18:28;95641.41;;;5.92
73894;BMP280;62699;50.534;12.784;2023-11-21T02:23:29;95649.41;;;5.92
73894;BMP280;62699;50.534;12.784;2023-11-21T02:28:29;95642.81;;;5.88
73894;BMP280;62699;50.534;12.784;2023-11-21T02:33:29;95642.81;;;5.88
73894;BMP280;62699;50.534;12.784;2023-11-21T02:38:30;95643.78;;;5.84
73894;BMP280;62699;50.534;12.784;2023-11-21T02:43:30;95649.09;;;5.79
73894;BMP280;62699;50.534;12.784;2023-11-21T02:48:30;95650.75;;;5.76
73894;BMP280;62699;50.534;12.784;2023-11-21T02:53:31;95658.31;;;5.78
73894;BMP280;62699;50.534;12.784;2023-11-21T02:58:31;95659.50;;;5.77
73894;BMP280;62699;50.534;12.784;2023-11-21T03:03:31;95655.63;;;5.78
73894;BMP280;62699;50.534;12.784;2023-11-21T03:08:32;95654.91;;;5.77
73894;BMP280;62699;50.534;12.784;2023-11-21T03:13:32;95650.28;;;5.78
73894;BMP280;62699;50.534;12.784;2023-11-21T03:18:33;95648.34;;;5.78
73894;BMP280;62699;50.534;12.784;2023-11-21T03:23:33;95649.56;;;5.77
73894;BMP280;62699;50.534;12.784;2023-11-21T03:28:33;95649.09;;;5.79
73894;BMP280;62699;50.534;12.784;2023-11-21T03:33:34;95659.03;;;5.78
73894;BMP280;62699;50.534;12.784;2023-11-21T03:38:35;95658.75;;;5.76
73894;BMP280;62699;50.534;12.784;2023-11-21T03:43:36;95681.59;;;5.77
73894;BMP280;62699;50.534;12.784;2023-11-21T03:48:37;95660.25;;;5.77
73894;BMP280;62699;50.534;12.784;2023-11-21T03:53:37;95670.44;;;5.79
73894;BMP280;62699;50.534;12.784;2023-11-21T03:58:38;95676.03;;;5.81
73894;BMP280;62699;50.534;12.784;2023-11-21T04:03:38;95673.59;;;5.77
73894;BMP280;62699;50.534;12.784;2023-11-21T04:08:40;95672.38;;;5.78
73894;BMP280;62699;50.534;12.784;2023-11-21T04:13:40;95674.75;;;5.71
73894;BMP280;62699;50.534;12.784;2023-11-21T04:18:42;95678.28;;;5.57
73894;BMP280;62699;50.534;12.784;2023-11-21T04:23:42;95688.88;;;5.51
73894;BMP280;62699;50.534;12.784;2023-11-21T04:28:42;95692.97;;;5.47
73894;BMP280;62699;50.534;12.784;2023-11-21T04:33:43;95686.50;;;5.33
73894;BMP280;62699;50.534;12.784;2023-11-21T04:38:45;95688.38;;;5.27
73894;BMP280;62699;50.534;12.784;2023-11-21T04:43:45;95693.00;;;5.26
73894;BMP280;62699;50.534;12.784;2023-11-21T04:48:45;95692.78;;;5.30
73894;BMP280;62699;50.534;12.784;2023-11-21T04:53:51;95701.59;;;5.36
73894;BMP280;62699;50.534;12.784;2023-11-21T04:58:53;95704.28;;;5.36
73894;BMP280;62699;50.534;12.784;2023-11-21T05:03:53;95699.44;;;5.40
73894;BMP280;62699;50.534;12.784;2023-11-21T05:08:54;95696.78;;;5.40
73894;BMP280;62699;50.534;12.784;2023-11-21T05:13:55;95706.00;;;5.39
73894;BMP280;62699;50.534;12.784;2023-11-21T05:18:59;95712.84;;;5.46
73894;BMP280;62699;50.534;12.784;2023-11-21T05:24:01;95721.38;;;5.50
73894;BMP280;62699;50.534;12.784;2023-11-21T05:29:01;95710.69;;;5.50
73894;BMP280;62699;50.534;12.784;2023-11-21T05:34:03;95719.72;;;5.52
73894;BMP280;62699;50.534;12.784;2023-11-21T05:39:05;95732.13;;;5.55
73894;BMP280;62699;50.534;12.784;2023-11-21T05:44:05;95724.38;;;5.57
73894;BMP280;62699;50.534;12.784;2023-11-21T05:49:05;95734.38;;;5.62
73894;BMP280;62699;50.534;12.784;2023-11-21T05:54:06;95734.38;;;5.62
73894;BMP280;62699;50.534;12.784;2023-11-21T05:59:06;95728.28;;;5.62
73894;BMP280;62699;50.534;12.784;2023-11-21T06:04:06;95742.66;;;5.64
73894;BMP280;62699;50.534;12.784;2023-11-21T06:09:09;95739.97;;;5.64
73894;BMP280;62699;50.534;12.784;2023-11-21T06:14:09;95744.59;;;5.64
73894;BMP280;62699;50.534;12.784;2023-11-21T06:19:11;95753.06;;;5.62
73894;BMP280;62699;50.534;12.784;2023-11-21T06:24:12;95754.25;;;5.61
73894;BMP280;62699;50.534;12.784;2023-11-21T06:29:12;95761.34;;;5.64
73894;BMP280;62699;50.534;12.784;2023-11-21T06:34:13;95762.53;;;5.63
73894;BMP280;62699;50.534;12.784;2023-11-21T06:39:13;95766.22;;;5.66
73894;BMP280;62699;50.534;12.784;2023-11-21T06:44:15;95765.03;;;5.67
73894;BMP280;62699;50.534;12.784;2023-11-21T06:49:15;95767.22;;;5.68
73894;BMP280;62699;50.534;12.784;2023-11-21T06:54:16;95771.63;;;5.71
73894;BMP280;62699;50.534;12.784;2023-11-21T06:59:16;95778.66;;;5.74
73894;BMP280;62699;50.534;12.784;2023-11-21T07:04:17;95786.03;;;5.79
73894;BMP280;62699;50.534;12.784;2023-11-21T07:09:18;95783.13;;;5.83
73894;BMP280;62699;50.534;12.784;2023-11-21T07:14:22;95804.31;;;5.87
73894;BMP280;62699;50.534;12.784;2023-11-21T07:19:22;95818.72;;;5.95
73894;BMP280;62699;50.534;12.784;2023-11-21T07:24:23;95812.91;;;5.96
73894;BMP280;62699;50.534;12.784;2023-11-21T07:29:24;95823.84;;;5.98
73894;BMP280;62699;50.534;12.784;2023-11-21T07:34:26;95816.81;;;6.01
73894;BMP280;62699;50.534;12.784;2023-11-21T07:39:26;95824.16;;;6.06
73894;BMP280;62699;50.534;12.784;2023-11-21T07:44:26;95830.03;;;6.10
73894;BMP280;62699;50.534;12.784;2023-11-21T07:49:27;95836.41;;;6.18
73894;BMP280;62699;50.534;12.784;2023-11-21T07:54:27;95836.53;;;6.29
73894;BMP280;62699;50.534;12.784;2023-11-21T07:59:28;95838.59;;;6.45
73894;BMP280;62699;50.534;12.784;2023-11-21T08:04:28;95841.94;;;6.72
73894;BMP280;62699;50.534;12.784;2023-11-21T08:09:28;95838.34;;;7.12
73894;BMP280;62699;50.534;12.784;2023-11-21T08:14:28;95843.34;;;7.41
73894;BMP280;62699;50.534;12.784;2023-11-21T08:19:29;95840.47;;;7.50
73894;BMP280;62699;50.534;12.784;2023-11-21T08:24:29;95837.78;;;7.50
73894;BMP280;62699;50.534;12.784;2023-11-21T08:29:29;95839.28;;;7.68
73894;BMP280;62699;50.534;12.784;2023-11-21T08:34:31;95845.34;;;7.52
73894;BMP280;62699;50.534;12.784;2023-11-21T08:39:31;95848.44;;;7.39
73894;BMP280;62699;50.534;12.784;2023-11-21T08:44:32;95842.09;;;7.36
73894;BMP280;62699;50.534;12.784;2023-11-21T08:49:32;95846.78;;;7.41
73894;BMP280;62699;50.534;12.784;2023-11-21T08:54:33;95846.56;;;7.50
73894;BMP280;62699;50.534;12.784;2023-11-21T08:59:34;95849.88;;;7.34
73894;BMP280;62699;50.534;12.784;2023-11-21T09:04:34;95847.94;;;7.29
73894;BMP280;62699;50.534;12.784;2023-11-21T09:09:35;95862.69;;;7.19
73894;BMP280;62699;50.534;12.784;2023-11-21T09:14:35;95878.69;;;7.08
73894;BMP280;62699;50.534;12.784;2023-11-21T09:19:35;95880.88;;;7.04
73894;BMP280;62699;50.534;12.784;2023-11-21T09:24:36;95892.06;;;7.08
73894;BMP280;62699;50.534;12.784;2023-11-21T09:29:37;95895.97;;;7.07
73894;BMP280;62699;50.534;12.784;2023-11-21T09:34:40;95896.91;;;7.04
73894;BMP280;62699;50.534;12.784;2023-11-21T09:39:42;95892.53;;;7.01
73894;BMP280;62699;50.534;12.784;2023-11-21T09:44:48;95902.19;;;6.93
73894;BMP280;62699;50.534;12.784;2023-11-21T09:49:48;95899.69;;;6.84
73894;BMP280;62699;50.534;12.784;2023-11-21T09:54:53;95908.50;;;6.90
73894;BMP280;62699;50.534;12.784;2023-11-21T09:59:54;95899.94;;;6.86
73894;BMP280;62699;50.534;12.784;2023-11-21T10:04:59;95905.28;;;6.80
73894;BMP280;62699;50.534;12.784;2023-11-21T10:10:00;95902.53;;;6.75
73894;BMP280;62699;50.534;12.784;2023-11-21T10:15:03;95905.44;;;6.71
73894;BMP280;62699;50.534;12.784;2023-11-21T10:20:06;95912.31;;;6.78
73894;BMP280;62699;50.534;12.784;2023-11-21T10:25:12;95914.97;;;6.78
73894;BMP280;62699;50.534;12.784;2023-11-21T10:30:15;95909.34;;;6.76
73894;BMP280;62699;50.534;12.784;2023-11-21T10:35:16;95910.81;;;6.77
73894;BMP280;62699;50.534;12.784;2023-11-21T10:40:16;95907.97;;;6.80
73894;BMP280;62699;50.534;12.784;2023-11-21T10:45:16;95912.38;;;6.89
73894;BMP280;62699;50.534;12.784;2023-11-21T10:50:18;95902.84;;;6.82
73894;BMP280;62699;50.534;12.784;2023-11-21T10:55:20;95917.00;;;6.88
73894;BMP280;62699;50.534;12.784;2023-11-21T11:00:26;95919.72;;;6.94
73894;BMP280;62699;50.534;12.784;2023-11-21T11:05:28;95925.81;;;6.94
73894;BMP280;62699;50.534;12.784;2023-11-21T11:10:35;95928.22;;;6.92
73894;BMP280;62699;50.534;12.784;2023-11-21T11:15:36;95928.44;;;6.89
73894;BMP280;62699;50.534;12.784;2023-11-21T11:20:39;95938.13;;;6.86
73894;BMP280;62699;50.534;12.784;2023-11-21T11:25:52;95940.34;;;6.88
73894;BMP280;62699;50.534;12.784;2023-11-21T11:31:04;95938.88;;;6.87
73894;BMP280;62699;50.534;12.784;2023-11-21T11:36:17;95936.19;;;6.81
73894;BMP280;62699;50.534;12.784;2023-11-21T11:41:27;95945.41;;;6.80
73894;BMP280;62699;50.534;12.784;2023-11-21T11:46:41;95944.09;;;6.70
73894;BMP280;62699;50.534;12.784;2023-11-21T11:51:42;95939.22;;;6.69
73894;BMP280;62699;50.534;12.784;2023-11-21T11:56:42;95938.00;;;6.70
73894;BMP280;62699;50.534;12.784;2023-11-21T12:01:48;95945.25;;;6.63
73894;BMP280;62699;50.534;12.784;2023-11-21T12:06:53;95951.88;;;6.68
73894;BMP280;62699;50.534;12.784;2023-11-21T12:11:55;95950.16;;;6.71
73894;BMP280;62699;50.534;12.784;2023-11-21T12:16:56;95956.72;;;6.70
73894;BMP280;62699;50.534;12.784;2023-11-21T12:21:57;95959.41;;;6.70
73894;BMP280;62699;50.534;12.784;2023-11-21T12:26:57;95963.97;;;6.63
73894;BMP280;62699;50.534;12.784;2023-11-21T12:32:00;95971.97;;;6.63
73894;BMP280;62699;50.534;12.784;2023-11-21T12:37:00;95978.75;;;6.59
73894;BMP280;62699;50.534;12.784;2023-11-21T12:42:01;95978.69;;;6.53
73894;BMP280;62699;50.534;12.784;2023-11-21T12:47:02;95981.09;;;6.51
73894;BMP280;62699;50.534;12.784;2023-11-21T12:52:03;95975.97;;;6.48
73894;BMP280;62699;50.534;12.784;2023-11-21T12:57:04;95978.59;;;6.42
73894;BMP280;62699;50.534;12.784;2023-11-21T13:02:05;95978.59;;;6.42
73894;BMP280;62699;50.534;12.784;2023-11-21T13:07:06;95995.38;;;6.43
73894;BMP280;62699;50.534;12.784;2023-11-21T13:12:14;95995.31;;;6.37
73894;BMP280;62699;50.534;12.784;2023-11-21T13:17:18;95999.81;;;6.31
73894;BMP280;62699;50.534;12.784;2023-11-21T13:22:19;96001.72;;;6.25
73894;BMP280;62699;50.534;12.784;2023-11-21T13:27:19;96005.78;;;6.20
73894;BMP280;62699;50.534;12.784;2023-11-21T13:32:21;96002.63;;;6.22
73894;BMP280;62699;50.534;12.784;2023-11-21T13:37:22;96017.75;;;6.25
73894;BMP280;62699;50.534;12.784;2023-11-21T13:42:26;96023.28;;;6.21
73894;BMP280;62699;50.534;12.784;2023-11-21T13:47:28;96025.13;;;6.10
73894;BMP280;62699;50.534;12.784;2023-11-21T13:52:31;96029.00;;;6.09
73894;BMP280;62699;50.534;12.784;2023-11-21T13:57:36;96030.38;;;6.04
73894;BMP280;62699;50.534;12.784;2023-11-21T14:02:38;96032.03;;;6.02
73894;BMP280;62699;50.534;12.784;2023-11-21T14:07:42;96043.69;;;5.99
73894;BMP280;62699;50.534;12.784;2023-11-21T14:12:47;96054.53;;;5.95
73894;BMP280;62699;50.534;12.784;2023-11-21T14:17:48;96059.81;;;5.90
73894;BMP280;62699;50.534;12.784;2023-11-21T14:22:49;96061.22;;;5.85
73894;BMP280;62699;50.534;12.784;2023-11-21T14:27:50;96063.81;;;5.79
73894;BMP280;62699;50.534;12.784;2023-11-21T14:32:50;96068.78;;;5.72
73894;BMP280;62699;50.534;12.784;2023-11-21T14:37:51;96070.06;;;5.62
73894;BMP280;62699;50.534;12.784;2023-11-21T14:42:51;96081.69;;;5.59
73894;BMP280;62699;50.534;12.784;2023-11-21T14:47:54;96085.19;;;5.50
73894;BMP280;62699;50.534;12.784;2023-11-21T14:53:18;96085.28;;;5.41
73894;BMP280;62699;50.534;12.784;2023-11-21T14:58:38;96098.41;;;5.30
73894;BMP280;62699;50.534;12.784;2023-11-21T15:03:39;96106.16;;;5.28
73894;BMP280;62699;50.534;12.784;2023-11-21T15:08:51;96105.63;;;5.24
73894;BMP280;62699;50.534;12.784;2023-11-21T15:14:06;96107.72;;;5.20
73894;BMP280;62699;50.534;12.784;2023-11-21T15:19:07;96117.56;;;5.14
73894;BMP280;62699;50.534;12.784;2023-11-21T15:24:09;96119.66;;;5.10
73894;BMP280;62699;50.534;12.784;2023-11-21T15:29:11;96128.38;;;5.10
73894;BMP280;62699;50.534;12.784;2023-11-21T15:34:12;96138.13;;;4.98
73894;BMP280;62699;50.534;12.784;2023-11-21T15:39:15;96156.25;;;4.94
73894;BMP280;62699;50.534;12.784;2023-11-21T15:44:16;96159.44;;;4.84
73894;BMP280;62699;50.534;12.784;2023-11-21T15:49:17;96173.84;;;4.77
73894;BMP280;62699;50.534;12.784;2023-11-21T15:54:20;96172.50;;;4.49
73894;BMP280;62699;50.534;12.784;2023-11-21T15:59:21;96195.41;;;4.32
73894;BMP280;62699;50.534;12.784;2023-11-21T16:04:24;96204.03;;;4.08
73894;BMP280;62699;50.534;12.784;2023-11-21T16:09:26;96210.03;;;3.94
73894;BMP280;62699;50.534;12.784;2023-11-21T16:14:35;96223.94;;;3.80
73894;BMP280;62699;50.534;12.784;2023-11-21T16:19:39;96235.03;;;3.69
73894;BMP280;62699;50.534;12.784;2023-11-21T16:24:39;96240.34;;;3.60
73894;BMP280;62699;50.534;12.784;2023-11-21T16:29:41;96241.84;;;3.52
73894;BMP280;62699;50.534;12.784;2023-11-21T16:34:42;96251.44;;;3.40
73894;BMP280;62699;50.534;12.784;2023-11-21T16:39:42;96261.34;;;3.40
73894;BMP280;62699;50.534;12.784;2023-11-21T16:44:42;96268.25;;;3.28
73894;BMP280;62699;50.534;12.784;2023-11-21T16:49:44;96274.63;;;3.22
73894;BMP280;62699;50.534;12.784;2023-11-21T16:54:44;96275.38;;;3.22
73894;BMP280;62699;50.534;12.784;2023-11-21T16:59:45;96283.91;;;3.17
73894;BMP280;62699;50.534;12.784;2023-11-21T17:04:50;96289.50;;;3.10
73894;BMP280;62699;50.534;12.784;2023-11-21T17:09:50;96294.84;;;3.10
73894;BMP280;62699;50.534;12.784;2023-11-21T17:14:50;96289.06;;;3.12
73894;BMP280;62699;50.534;12.784;2023-11-21T17:19:54;96298.06;;;3.05
73894;BMP280;62699;50.534;12.784;2023-11-21T17:24:54;96298.63;;;3.00
73894;BMP280;62699;50.534;12.784;2023-11-21T17:29:54;96302.16;;;2.97
73894;BMP280;62699;50.534;12.784;2023-11-21T17:34:55;96310.44;;;2.99
73894;BMP280;62699;50.534;12.784;2023-11-21T17:39:57;96298.75;;;2.87
73894;BMP280;62699;50.534;12.784;2023-11-21T17:45:00;96314.41;;;2.94
73894;BMP280;62699;50.534;12.784;2023-11-21T17:50:01;96325.00;;;2.85
73894;BMP280;62699;50.534;12.784;2023-11-21T17:55:01;96338.75;;;2.84
73894;BMP280;62699;50.534;12.784;2023-11-21T18:00:03;96335.47;;;2.80
73894;BMP280;62699;50.534;12.784;2023-11-21T18:05:06;96338.56;;;2.78
73894;BMP280;62699;50.534;12.784;2023-11-21T18:10:12;96337.50;;;2.76
73894;BMP280;62699;50.534;12.784;2023-11-21T18:15:13;96345.19;;;2.74
73894;BMP280;62699;50.534;12.784;2023-11-21T18:20:14;96341.06;;;2.73
73894;BMP280;62699;50.534;12.784;2023-11-21T18:25:15;96357.25;;;2.65
73894;BMP280;62699;50.534;12.784;2023-11-21T18:30:17;96367.88;;;2.65
73894;BMP280;62699;50.534;12.784;2023-11-21T18:35:18;96369.31;;;2.57
73894;BMP280;62699;50.534;12.784;2023-11-21T18:40:19;96374.97;;;2.59
73894;BMP280;62699;50.534;12.784;2023-11-21T18:45:19;96381.44;;;2.58
73894;BMP280;62699;50.534;12.784;2023-11-21T18:50:20;96394.72;;;2.58
73894;BMP280;62699;50.534;12.784;2023-11-21T18:55:21;96404.00;;;2.54
73894;BMP280;62699;50.534;12.784;2023-11-21T19:00:21;96400.34;;;2.60
73894;BMP280;62699;50.534;12.784;2023-11-21T19:05:22;96402.38;;;2.56
73894;BMP280;62699;50.534;12.784;2023-11-21T19:10:22;96409.59;;;2.56
73894;BMP280;62699;50.534;12.784;2023-11-21T19:15:27;96422.28;;;2.52
73894;BMP280;62699;50.534;12.784;2023-11-21T19:20:28;96438.97;;;2.52
73894;BMP280;62699;50.534;12.784;2023-11-21T19:25:29;96426.53;;;2.49
73894;BMP280;62699;50.534;12.784;2023-11-21T19:30:29;96443.66;;;2.48
73894;BMP280;62699;50.534;12.784;2023-11-21T19:35:32;96452.28;;;2.40
73894;BMP280;62699;50.534;12.784;2023-11-21T19:40:41;96451.66;;;2.36
73894;BMP280;62699;50.534;12.784;2023-11-21T19:45:43;96454.03;;;2.34
73894;BMP280;62699;50.534;12.784;2023-11-21T19:50:43;96467.59;;;2.36
73894;BMP280;62699;50.534;12.784;2023-11-21T19:55:44;96463.28;;;2.29
73894;BMP280;62699;50.534;12.784;2023-11-21T20:00:44;96474.16;;;2.22
73894;BMP280;62699;50.534;12.784;2023-11-21T20:05:47;96487.84;;;2.20
73894;BMP280;62699;50.534;12.784;2023-11-21T20:10:49;96503.03;;;2.20
73894;BMP280;62699;50.534;12.784;2023-11-21T20:15:50;96511.97;;;2.13
73894;BMP280;62699;50.534;12.784;2023-11-21T20:20:51;96501.34;;;2.13
73894;BMP280;62699;50.534;12.784;2023-11-21T20:25:52;96516.53;;;2.13
73894;BMP280;62699;50.534;12.784;2023-11-21T20:30:57;96520.13;;;2.06
73894;BMP280;62699;50.534;12.784;2023-11-21T20:36:00;96536.06;;;2.06
73894;BMP280;62699;50.534;12.784;2023-11-21T20:41:01;96536.38;;;1.96
73894;BMP280;62699;50.534;12.784;2023-11-21T20:46:01;96537.88;;;1.97
73894;BMP280;62699;50.534;12.784;2023-11-21T20:51:02;96540.31;;;1.91
73894;BMP280;62699;50.534;12.784;2023-11-21T20:56:04;96550.53;;;1.93
73894;BMP280;62699;50.534;12.784;2023-11-21T21:01:07;96539.38;;;1.85
73894;BMP280;62699;50.534;12.784;2023-11-21T21:06:07;96548.09;;;1.85
73894;BMP280;62699;50.534;12.784;2023-11-21T21:11:08;96555.09;;;1.92
73894;BMP280;62699;50.534;12.784;2023-11-21T21:16:09;96550.53;;;1.93
73894;BMP280;62699;50.534;12.784;2023-11-21T21:21:10;96555.50;;;1.91
73894;BMP280;62699;50.534;12.784;2023-11-21T21:26:10;96562.72;;;1.90
73894;BMP280;62699;50.534;12.784;2023-11-21T21:31:11;96569.19;;;1.89
73894;BMP280;62699;50.534;12.784;2023-11-21T21:36:12;96575.25;;;1.89
73894;BMP280;62699;50.534;12.784;2023-11-21T21:41:16;96568.66;;;1.94
73894;BMP280;62699;50.534;12.784;2023-11-21T21:46:18;96574.50;;;1.89
73894;BMP280;62699;50.534;12.784;2023-11-21T21:51:19;96577.38;;;1.95
73894;BMP280;62699;50.534;12.784;2023-11-21T21:56:20;96586.09;;;1.82
73894;BMP280;62699;50.534;12.784;2023-11-21T22:01:20;96575.78;;;1.84
73894;BMP280;62699;50.534;12.784;2023-11-21T22:06:21;96580.56;;;1.89
73894;BMP280;62699;50.534;12.784;2023-11-21T22:11:21;96589.69;;;1.88
73894;BMP280;62699;50.534;12.784;2023-11-21T22:16:21;96588.19;;;1.87
73894;BMP280;62699;50.534;12.784;2023-11-21T22:21:24;96586.41;;;1.84
73894;BMP280;62699;50.534;12.784;2023-11-21T22:26:26;96589.28;;;1.77
73894;BMP280;62699;50.534;12.784;2023-11-21T22:31:26;96590.56;;;1.73
73894;BMP280;62699;50.534;12.784;2023-11-21T22:36:27;96597.84;;;1.69
73894;BMP280;62699;50.534;12.784;2023-11-21T22:41:28;96594.00;;;1.57
73894;BMP280;62699;50.534;12.784;2023-11-21T22:46:28;96602.66;;;1.45
73894;BMP280;62699;50.534;12.784;2023-11-21T22:51:29;96591.41;;;1.41
73894;BMP280;62699;50.534;12.784;2023-11-21T22:56:29;96599.53;;;1.34
73894;BMP280;62699;50.534;12.784;2023-11-21T23:01:31;96606.88;;;1.30
73894;BMP280;62699;50.534;12.784;2023-11-21T23:06:33;96612.59;;;1.28
73894;BMP280;62699;50.534;12.784;2023-11-21T23:11:34;96615.09;;;1.19
73894;BMP280;62699;50.534;12.784;2023-11-21T23:16:34;96623.50;;;1.01
73894;BMP280;62699;50.534;12.784;2023-11-21T23:21:35;96627.56;;;0.90
73894;BMP280;62699;50.534;12.784;2023-11-21T23:26:35;96645.72;;;0.91
73894;BMP280;62699;50.534;12.784;2023-11-21T23:31:37;96662.09;;;0.86
73894;BMP280;62699;50.534;12.784;2023-11-21T23:36:38;96667.56;;;0.79
73894;BMP280;62699;50.534;12.784;2023-11-21T23:41:38;96660.94;;;0.71
73894;BMP280;62699;50.534;12.784;2023-11-21T23:46:39;96665.56;;;0.67
73894;BMP280;62699;50.534;12.784;2023-11-21T23:51:41;96665.16;;;0.68
73894;BMP280;62699;50.534;12.784;2023-11-21T23:56:42;96662.56;;;0.65
